Aeroporto :
LOGIN :

Iscrizione | Disclaimer

   EN    FR    IT 

 










Sommario :    VFR   VFR Marginale   IFR   IFR Intensivo   IFR Molto Intensivo
Visibilità : 
Base nubi : 
>= 8 km
>= 3000ft
5 / 8 km
1000 / 3000 ft
1500m / 5 km
500 / 1000 ft
800 / 1500m
200 / 500 ft
< 800m
< 200 ft
Simboli :   Temporali  Nebbia  Neve Forte  Precipitazioni Forti  Vento > 20 kt
SIGMETs :   Varie  Temporali  Ghiacco  Turbolenza  Onda orograficha  Ceneri Vulcaniche







- Altitudine del aeroporto : 1090 ft
- Codice IATA : CFE
- Carte del aeroporto


LFLC - Clermont-Ferrand Auvergne

ULTIMO METAR :
  • 212330Z AUTO 07001KT CAVOK 10/08 Q1012 NOSIG

METARs OBSOLETI :
  • 212300Z AUTO VRB02KT CAVOK 10/08 Q1013 NOSIG
  • 212230Z AUTO 20001KT CAVOK 10/08 Q1013 NOSIG
  • 212200Z AUTO 20002KT CAVOK 10/08 Q1013 NOSIG
  • 212130Z AUTO 24002KT CAVOK 10/09 Q1014 NOSIG
  • 212100Z AUTO 30002KT CAVOK 11/09 Q1014 NOSIG

TAF TAF LFLC
Valido dal 21 a 21 ore il 22 a 21 ore UTC


212000Z 2121/2221 VRB03KT CAVOK
TEMPO 2210/2219 02005KT
PROB30
TEMPO 2215/2221 RA SCT060TCU
ATIS : +33 4 73 62 74 38
Nessun NOTAM noto per questo aeroporto.
2 SIGMETs conosciuti per la FIR Marseille (LFMM) :
 
Turbolenza severa
LFMM SIGMET 9 VALID 220000/220400 LFPW
LFMM MARSEILLE FIR/UIR SEV TURB FCST WI N4430 E00700 - N4400 E00700 - N4315 E00945 - N4115 E00945 - N4115 E00800 - N4245 E00800 - N4245 E00545 - N4430 E00700 SFC/FL080 STNR NC=
Turbolenza severa
LFMM SIGMET 8 VALID 212000/220000 LFPW
LFMM MARSEILLE FIR/UIR SEV TURB FCST WI N4430 E00700 - N4400 E00700 - N4315 E00945 - N4115 E00945 - N4115 E00800 - N4245 E00800 - N4245 E00545 - N4430 E00700 SFC/FL080 STNR NC=



MetMap, La meteo Aeronautica in un colpo d'occhio ! - Copyright ORBIFLY Dicembre 2007 - Disclaimer

ORBIFLY MET'MAP TEAM :

Programmazione e sviluppo : Alexandra Zaïnal
Concezione e sviluppo : Baudouin d'Aumeries
Co-Programmazione e sviluppo : Marc-Olivier Méhu
Supporto tecnico e logistico : Manuel Goepfert
Aiuto per la traduzione : Arnaldo La Scala

Contatto : metmap@orbifly.com




FONTI E CREDITI :

   NOAA